createdAt,value
2022-07-25T00:01:20.584Z,8.20
2022-07-25T00:03:48.863Z,17.87
2022-07-25T00:06:18.301Z,12.50
2022-07-25T00:08:46.263Z,11.27
2022-07-25T00:11:14.173Z,14.70
2022-07-25T00:13:42.108Z,10.60
2022-07-25T00:16:10.140Z,13.13
2022-07-25T00:18:38.266Z,13.93
2022-07-25T00:21:06.413Z,12.10
2022-07-25T00:23:35.911Z,11.90
2022-07-25T00:26:03.786Z,15.10
2022-07-25T00:28:31.718Z,17.87
2022-07-25T00:30:59.718Z,19.67
2022-07-25T00:33:27.641Z,17.10
2022-07-25T00:35:55.628Z,14.37
2022-07-25T00:38:23.579Z,15.03
2022-07-25T00:40:55.723Z,15.10
2022-07-25T00:43:23.815Z,12.97
2022-07-25T00:45:51.866Z,12.63
2022-07-25T00:48:19.874Z,14.90
2022-07-25T00:50:47.888Z,16.93
2022-07-25T00:53:15.836Z,15.07
2022-07-25T00:55:43.763Z,16.37
2022-07-25T00:58:13.136Z,18.13
2022-07-25T01:00:41.239Z,21.17
2022-07-25T01:03:09.257Z,20.30
2022-07-25T01:05:37.277Z,20.07
2022-07-25T01:08:05.740Z,18.03
2022-07-25T01:10:33.775Z,10.03
2022-07-25T01:13:01.781Z,12.20
2022-07-25T01:15:31.323Z,17.40
2022-07-25T01:17:59.686Z,17.73
2022-07-25T01:20:29.976Z,15.00
2022-07-25T01:22:57.993Z,17.37
2022-07-25T01:25:26.494Z,21.70
2022-07-25T01:27:55.738Z,16.10
2022-07-25T01:30:24.580Z,11.40
2022-07-25T01:32:52.681Z,12.87
2022-07-25T01:35:20.636Z,16.70
2022-07-25T01:37:49.999Z,7.57
2022-07-25T01:40:17.987Z,11.27
2022-07-25T01:42:45.998Z,14.00
2022-07-25T01:45:14.068Z,13.90
2022-07-25T01:47:42.082Z,14.27
2022-07-25T01:50:10.986Z,24.10
2022-07-25T01:52:39.647Z,8.40
2022-07-25T01:55:09.946Z,16.63
2022-07-25T01:57:39.072Z,17.80
2022-07-25T02:00:09.979Z,15.17
2022-07-25T02:02:37.896Z,15.60
2022-07-25T02:05:06.482Z,21.07
2022-07-25T02:07:34.542Z,12.40
2022-07-25T02:10:02.502Z,18.30
2022-07-25T02:12:31.886Z,21.80
2022-07-25T02:14:59.927Z,10.17
2022-07-25T02:17:28.059Z,11.80
2022-07-25T02:19:56.017Z,16.77
2022-07-25T02:22:24.407Z,16.00
2022-07-25T02:24:52.348Z,17.00
2022-07-25T02:27:20.279Z,15.30
2022-07-25T02:29:49.661Z,5.33
2022-07-25T02:32:17.599Z,14.33
2022-07-25T02:34:45.577Z,16.73
2022-07-25T02:37:14.037Z,12.83
2022-07-25T02:39:41.965Z,17.73
2022-07-25T02:42:09.907Z,16.30
2022-07-25T02:44:37.876Z,9.23
2022-07-25T02:47:07.314Z,10.77
2022-07-25T02:49:35.255Z,17.23
2022-07-25T02:52:03.274Z,8.07
2022-07-25T02:54:31.202Z,11.90
2022-07-25T02:56:59.136Z,7.53
2022-07-25T02:59:32.420Z,12.13
2022-07-25T03:02:00.507Z,12.17
2022-07-25T03:04:31.140Z,12.07
2022-07-25T03:06:59.106Z,10.37
2022-07-25T03:09:27.103Z,12.37
2022-07-25T03:11:55.154Z,15.30
2022-07-25T03:14:23.117Z,9.13
2022-07-25T03:16:51.063Z,23.63
2022-07-25T03:19:19.093Z,11.83
2022-07-25T03:21:48.410Z,11.83
2022-07-25T03:24:17.097Z,9.73
2022-07-25T03:26:45.765Z,5.37
2022-07-25T03:29:13.703Z,9.23
2022-07-25T03:31:41.710Z,9.10
2022-07-25T03:34:09.965Z,10.47
2022-07-25T03:36:38.005Z,4.40
2022-07-25T03:39:07.309Z,7.43
2022-07-25T03:41:35.234Z,12.23
2022-07-25T03:44:03.659Z,3.67
2022-07-25T03:46:31.997Z,6.30
2022-07-25T03:49:00.140Z,9.30
2022-07-25T03:51:28.138Z,7.47
2022-07-25T03:54:06.256Z,10.03
2022-07-25T03:56:38.375Z,12.37
2022-07-25T03:59:12.324Z,10.57
2022-07-25T04:01:40.336Z,6.17
2022-07-25T04:04:08.670Z,9.73
2022-07-25T04:06:36.980Z,11.27
2022-07-25T04:09:05.134Z,15.47
2022-07-25T04:11:33.114Z,15.53
2022-07-25T04:14:02.677Z,9.70
2022-07-25T04:16:30.744Z,12.00
2022-07-25T04:18:58.750Z,15.57
2022-07-25T04:21:29.069Z,9.67
2022-07-25T04:23:57.035Z,13.63
2022-07-25T04:26:25.000Z,11.93
2022-07-25T04:28:52.915Z,17.00
2022-07-25T04:31:22.292Z,20.20
2022-07-25T04:33:50.232Z,11.60
2022-07-25T04:36:18.158Z,6.80
2022-07-25T04:38:47.508Z,7.50
2022-07-25T04:41:15.445Z,12.13
2022-07-25T04:43:48.282Z,6.60
2022-07-25T04:46:20.022Z,3.40
2022-07-25T04:48:49.543Z,6.97
2022-07-25T04:51:17.566Z,6.90
2022-07-25T04:53:45.613Z,18.33
2022-07-25T04:56:13.598Z,12.03
2022-07-25T04:58:41.582Z,18.73
2022-07-25T05:01:09.651Z,12.60
2022-07-25T05:03:38.062Z,17.07
2022-07-25T05:06:08.033Z,10.03
2022-07-25T05:08:36.029Z,5.97
2022-07-25T05:11:04.032Z,3.30
2022-07-25T05:13:32.003Z,7.97
2022-07-25T05:15:59.970Z,12.07
2022-07-25T05:18:27.985Z,8.20
2022-07-25T05:20:55.984Z,5.83
2022-07-25T05:23:25.395Z,7.20
2022-07-25T05:25:53.379Z,8.97
2022-07-25T05:28:21.332Z,11.63
2022-07-25T05:30:49.283Z,8.67
2022-07-25T05:33:17.257Z,12.33
2022-07-25T05:35:45.189Z,10.73
2022-07-25T05:38:13.200Z,12.70
2022-07-25T05:40:42.642Z,12.30
2022-07-25T05:43:10.727Z,5.23
2022-07-25T05:45:38.741Z,7.97
2022-07-25T05:48:07.005Z,13.50
2022-07-25T05:50:34.970Z,7.63
2022-07-25T05:53:03.108Z,11.23
2022-07-25T05:55:31.070Z,11.57
2022-07-25T05:58:00.382Z,15.90
2022-07-25T06:00:31.091Z,16.97
2022-07-25T06:03:00.408Z,10.80
2022-07-25T06:05:28.593Z,10.50
2022-07-25T06:07:56.539Z,5.43
2022-07-25T06:10:24.510Z,8.17
2022-07-25T06:12:52.661Z,9.40
2022-07-25T06:15:22.916Z,13.33
2022-07-25T06:17:54.743Z,5.50
2022-07-25T06:20:22.938Z,10.80
2022-07-25T06:22:50.872Z,10.57
2022-07-25T06:25:18.807Z,7.30
2022-07-25T06:27:47.186Z,12.17
2022-07-25T06:30:20.275Z,8.40
2022-07-25T06:32:50.255Z,9.63
2022-07-25T06:35:18.321Z,6.73
2022-07-25T06:37:46.286Z,7.53
2022-07-25T06:40:14.436Z,6.40
2022-07-25T06:42:43.203Z,5.30
2022-07-25T06:45:11.937Z,4.57
2022-07-25T06:47:40.300Z,4.50
2022-07-25T06:50:11.467Z,2.80
2022-07-25T06:52:39.739Z,8.43
2022-07-25T06:55:09.101Z,5.83
2022-07-25T06:57:42.748Z,5.77
2022-07-25T07:00:12.137Z,6.33
2022-07-25T07:02:49.122Z,4.90
2022-07-25T07:05:18.505Z,3.77
2022-07-25T07:07:48.000Z,8.83
2022-07-25T07:10:16.191Z,14.97
2022-07-25T07:12:44.481Z,12.30
2022-07-25T07:15:12.571Z,14.90
2022-07-25T07:17:40.594Z,8.80
2022-07-25T07:20:09.543Z,11.63
2022-07-25T07:22:49.211Z,23.43
2022-07-25T07:25:18.767Z,13.47
2022-07-25T07:27:47.875Z,14.20
2022-07-25T07:30:18.564Z,15.40
2022-07-25T07:32:50.168Z,11.93
2022-07-25T07:35:19.194Z,15.63
2022-07-25T07:37:48.583Z,13.90
2022-07-25T07:40:17.946Z,18.40
2022-07-25T07:42:47.458Z,10.80
2022-07-25T07:45:17.466Z,8.70
2022-07-25T07:47:47.971Z,16.20
2022-07-25T07:50:16.201Z,11.97
2022-07-25T07:52:44.300Z,9.63
2022-07-25T07:55:31.040Z,8.17
2022-07-25T07:57:59.759Z,8.93
2022-07-25T08:00:29.191Z,8.47
2022-07-25T08:02:57.268Z,11.63
2022-07-25T08:05:25.976Z,7.87
2022-07-25T08:07:54.106Z,10.07
2022-07-25T08:10:24.264Z,6.37
2022-07-25T08:12:52.248Z,10.13
2022-07-25T08:15:21.452Z,7.27
2022-07-25T08:17:51.042Z,7.53
2022-07-25T08:20:37.625Z,9.97
2022-07-25T08:23:07.282Z,6.93
2022-07-25T08:25:37.031Z,14.03
2022-07-25T08:28:06.583Z,2.37
2022-07-25T08:30:37.509Z,4.83
2022-07-25T08:33:07.868Z,8.57
2022-07-25T08:35:36.577Z,4.53
2022-07-25T08:38:05.073Z,3.33
2022-07-25T08:40:33.398Z,6.40
2022-07-25T08:43:02.803Z,6.07
2022-07-25T08:45:30.783Z,7.03
2022-07-25T08:47:58.792Z,2.70
2022-07-25T08:50:27.557Z,5.60
2022-07-25T08:53:10.409Z,6.30
2022-07-25T08:55:45.119Z,4.07
2022-07-25T08:58:14.857Z,3.40
2022-07-25T09:00:42.871Z,3.60
2022-07-25T09:03:10.931Z,2.87
2022-07-25T09:05:39.166Z,5.23
2022-07-25T09:08:08.327Z,5.83
2022-07-25T09:10:37.099Z,10.80
2022-07-25T09:13:07.877Z,4.97
2022-07-25T09:15:37.777Z,6.63
2022-07-25T09:18:10.738Z,7.67
2022-07-25T09:20:40.562Z,4.35
2022-07-25T09:23:08.634Z,11.93
2022-07-25T09:25:36.811Z,6.88
2022-07-25T09:28:15.069Z,8.00
2022-07-25T09:30:54.946Z,9.88
2022-07-25T09:33:23.112Z,6.50
2022-07-25T09:35:51.052Z,5.90
2022-07-25T09:38:19.127Z,11.67
2022-07-25T09:40:55.440Z,10.33
2022-07-25T09:43:23.787Z,4.90
2022-07-25T09:45:53.228Z,13.40
2022-07-25T09:48:21.607Z,12.70
2022-07-25T09:50:49.585Z,6.25
2022-07-25T09:53:17.530Z,8.23
2022-07-25T09:55:45.791Z,5.95
2022-07-25T09:58:14.357Z,5.97
2022-07-25T10:00:42.872Z,7.85
2022-07-25T10:03:17.904Z,5.27
2022-07-25T10:05:54.945Z,14.77
2022-07-25T10:08:22.908Z,3.17
2022-07-25T10:10:50.902Z,5.85
2022-07-25T10:13:29.919Z,5.75
2022-07-25T10:15:58.647Z,3.85
2022-07-25T10:18:29.138Z,3.63
2022-07-25T10:20:57.907Z,3.67
2022-07-25T10:23:26.614Z,6.57
2022-07-25T10:26:04.456Z,6.28
2022-07-25T10:28:43.126Z,6.37
2022-07-25T10:31:23.012Z,11.37
2022-07-25T10:33:56.603Z,12.33
2022-07-25T10:36:24.978Z,7.63
2022-07-25T10:38:54.040Z,13.40
2022-07-25T10:41:26.050Z,5.30
2022-07-25T10:43:56.840Z,12.60
2022-07-25T10:46:28.153Z,6.87
2022-07-25T10:49:01.518Z,7.50
2022-07-25T10:51:29.854Z,6.00
2022-07-25T10:53:57.804Z,5.33
2022-07-25T10:56:26.575Z,10.03
2022-07-25T10:58:55.524Z,8.80
2022-07-25T11:01:24.825Z,10.55
2022-07-25T11:03:53.345Z,8.23
2022-07-25T11:06:32.545Z,12.25
2022-07-25T11:09:01.408Z,3.47
2022-07-25T11:11:36.668Z,12.23
2022-07-25T11:14:04.750Z,6.68
2022-07-25T11:16:32.797Z,14.45
2022-07-25T11:19:00.981Z,4.75
2022-07-25T11:21:28.945Z,6.60
2022-07-25T11:23:58.257Z,8.88
2022-07-25T11:26:26.258Z,7.75
2022-07-25T11:28:54.170Z,9.10
2022-07-25T11:31:23.889Z,7.82
2022-07-25T11:33:51.923Z,6.25
2022-07-25T11:36:19.926Z,5.32
2022-07-25T11:38:49.321Z,10.00
2022-07-25T11:41:28.780Z,4.28
2022-07-25T11:43:57.312Z,4.15
2022-07-25T11:46:25.962Z,6.25
2022-07-25T11:48:55.874Z,6.15
2022-07-25T11:51:24.013Z,6.10
2022-07-25T11:53:52.840Z,5.72
2022-07-25T11:59:12.544Z,4.90
2022-07-25T12:01:41.866Z,10.10
2022-07-25T12:04:14.301Z,6.55
2022-07-25T12:06:42.526Z,3.20
2022-07-25T12:09:18.536Z,6.68
2022-07-25T12:11:49.683Z,3.92
2022-07-25T12:14:17.643Z,4.10
2022-07-25T12:16:45.654Z,3.72
2022-07-25T12:19:20.033Z,4.15
2022-07-25T12:21:47.970Z,4.38
2022-07-25T12:24:15.859Z,4.75
2022-07-25T12:26:43.866Z,4.57
2022-07-25T12:29:13.188Z,4.80
2022-07-25T12:31:41.146Z,5.40
2022-07-25T12:34:09.257Z,9.18
2022-07-25T12:36:44.171Z,6.30
2022-07-25T12:39:12.215Z,4.40
2022-07-25T12:41:42.446Z,4.85
2022-07-25T12:44:16.695Z,2.78
2022-07-25T12:46:49.290Z,3.15
2022-07-25T12:49:18.110Z,3.08
2022-07-25T12:51:46.128Z,3.88
2022-07-25T12:54:21.593Z,3.33
2022-07-25T12:56:50.182Z,2.65
2022-07-25T12:59:19.569Z,2.92
2022-07-25T13:01:47.584Z,3.10
2022-07-25T13:04:15.605Z,3.85
2022-07-25T13:06:43.620Z,1.92
2022-07-25T13:09:11.871Z,2.17
2022-07-25T13:11:39.827Z,3.55
2022-07-25T13:14:10.415Z,3.67
2022-07-25T13:16:39.894Z,2.83
2022-07-25T13:19:08.834Z,2.03
2022-07-25T13:21:37.371Z,4.43
2022-07-25T13:24:07.174Z,6.32
2022-07-25T13:26:35.534Z,2.40
2022-07-25T13:29:03.511Z,4.80
2022-07-25T13:31:32.837Z,5.20
2022-07-25T13:34:04.937Z,6.13
2022-07-25T13:36:33.587Z,1.35
2022-07-25T13:39:02.137Z,3.92
2022-07-25T13:41:30.108Z,3.72
2022-07-25T13:43:58.071Z,3.70
2022-07-25T13:46:26.251Z,4.40
2022-07-25T13:48:54.271Z,2.05
2022-07-25T13:51:23.674Z,7.28
2022-07-25T13:53:51.625Z,4.03
2022-07-25T13:56:19.546Z,2.05
2022-07-25T13:58:48.015Z,2.28
2022-07-25T14:01:16.367Z,3.92
2022-07-25T14:03:44.359Z,5.75
2022-07-25T14:06:12.331Z,3.65
2022-07-25T14:08:41.750Z,4.32
2022-07-25T14:11:09.739Z,4.15
2022-07-25T14:13:38.131Z,1.63
2022-07-25T14:16:06.574Z,6.07
2022-07-25T14:18:34.632Z,1.83
2022-07-25T14:21:02.742Z,1.20
2022-07-25T14:23:30.685Z,3.15
2022-07-25T14:26:00.581Z,2.55
2022-07-25T14:28:28.595Z,3.30
2022-07-25T14:30:56.695Z,7.18
2022-07-25T14:33:24.771Z,4.03
2022-07-25T14:35:52.786Z,2.65
2022-07-25T14:38:20.753Z,4.85
2022-07-25T14:40:49.085Z,1.88
2022-07-25T14:43:18.440Z,2.63
2022-07-25T14:45:46.363Z,5.60
2022-07-25T14:48:14.319Z,3.10
2022-07-25T14:50:42.378Z,3.15
2022-07-25T14:53:10.669Z,6.13
2022-07-25T14:55:38.648Z,3.65
2022-07-25T14:58:06.758Z,6.50
2022-07-25T15:00:36.114Z,2.20
2022-07-25T15:03:04.170Z,2.45
2022-07-25T15:05:32.101Z,6.20
2022-07-25T15:08:00.079Z,9.68
2022-07-25T15:10:28.223Z,2.00
2022-07-25T15:13:13.948Z,4.57
2022-07-25T15:15:46.150Z,5.85
2022-07-25T15:18:14.261Z,4.80
2022-07-25T15:20:42.251Z,6.30
2022-07-25T15:23:10.265Z,1.45
2022-07-25T15:28:26.309Z,3.13
2022-07-25T15:30:56.002Z,1.02
2022-07-25T15:33:24.014Z,4.05
2022-07-25T15:35:51.953Z,4.63
2022-07-25T15:38:19.947Z,2.20
2022-07-25T15:40:48.053Z,6.88
2022-07-25T15:43:16.033Z,2.15
2022-07-25T15:45:45.896Z,1.17
2022-07-25T15:48:16.165Z,6.32
2022-07-25T15:50:48.058Z,3.20
2022-07-25T15:53:16.342Z,2.13
2022-07-25T15:55:44.516Z,4.35
2022-07-25T15:58:12.710Z,3.65
2022-07-25T16:00:40.778Z,3.72
2022-07-25T16:03:08.822Z,4.97
2022-07-25T16:05:38.548Z,4.13
2022-07-25T16:08:10.585Z,3.85
2022-07-25T16:10:38.613Z,6.18
2022-07-25T16:13:07.093Z,6.40
2022-07-25T16:15:35.167Z,4.50
2022-07-25T16:18:03.409Z,7.40
2022-07-25T16:20:40.526Z,7.80
2022-07-25T16:23:09.966Z,1.90
2022-07-25T16:25:38.021Z,5.03
2022-07-25T16:28:06.489Z,3.47
2022-07-25T16:30:34.496Z,1.88
2022-07-25T16:33:02.462Z,5.97
2022-07-25T16:35:30.667Z,4.35
2022-07-25T16:38:00.114Z,3.47
2022-07-25T16:40:30.843Z,5.07
2022-07-25T16:42:59.805Z,3.97
2022-07-25T16:45:28.102Z,4.13
2022-07-25T16:47:56.354Z,6.13
2022-07-25T16:50:24.287Z,3.40
2022-07-25T16:52:53.663Z,6.65
2022-07-25T16:55:23.063Z,2.42
2022-07-25T16:57:51.001Z,7.00
2022-07-25T17:00:19.319Z,4.25
2022-07-25T17:02:47.326Z,4.32
2022-07-25T17:05:15.399Z,2.70
2022-07-25T17:07:43.399Z,2.95
2022-07-25T17:10:11.765Z,8.20
2022-07-25T17:12:41.058Z,3.88
2022-07-25T17:15:13.049Z,4.25
2022-07-25T17:17:41.018Z,6.43
2022-07-25T17:20:10.302Z,4.15
2022-07-25T17:22:38.846Z,5.90
2022-07-25T17:25:07.875Z,5.88
2022-07-25T17:27:37.202Z,4.88
2022-07-25T17:30:07.995Z,6.38
2022-07-25T17:32:36.084Z,3.33
2022-07-25T17:35:04.269Z,8.90
2022-07-25T17:37:32.406Z,5.95
2022-07-25T17:40:00.370Z,8.38
2022-07-25T17:42:28.366Z,3.03
2022-07-25T17:44:56.315Z,4.18
2022-07-25T17:47:25.619Z,2.67
2022-07-25T17:49:53.703Z,7.78
2022-07-25T17:52:21.806Z,7.90
2022-07-25T17:54:49.773Z,10.38
2022-07-25T17:57:17.933Z,5.82
2022-07-25T17:59:45.910Z,3.13
2022-07-25T18:02:13.907Z,9.23
2022-07-25T18:04:43.238Z,7.47
2022-07-25T18:07:11.239Z,4.70
2022-07-25T18:09:39.149Z,7.13
2022-07-25T18:12:07.696Z,6.00
2022-07-25T18:14:35.645Z,5.15
2022-07-25T18:17:03.943Z,5.68
2022-07-25T18:19:31.864Z,2.97
2022-07-25T18:22:01.202Z,7.22
2022-07-25T18:24:30.258Z,5.35
2022-07-25T18:26:58.500Z,6.85
2022-07-25T18:29:26.505Z,3.80
2022-07-25T18:31:54.724Z,3.80
2022-07-25T18:34:22.700Z,2.40
2022-07-25T18:36:50.664Z,3.60
2022-07-25T18:39:20.068Z,7.90
2022-07-25T18:41:48.207Z,2.35
2022-07-25T18:44:16.295Z,1.88
2022-07-25T18:46:45.682Z,2.67
2022-07-25T18:49:13.879Z,4.93
2022-07-25T18:51:41.904Z,3.05
2022-07-25T18:54:10.211Z,4.57
2022-07-25T18:56:39.919Z,4.97
2022-07-25T18:59:08.216Z,4.53
2022-07-25T19:01:37.348Z,7.90
2022-07-25T19:04:06.218Z,10.30
2022-07-25T19:06:34.452Z,6.35
2022-07-25T19:09:02.390Z,4.15
2022-07-25T19:11:30.355Z,4.72
2022-07-25T19:13:59.782Z,5.38
2022-07-25T19:16:27.772Z,5.40
2022-07-25T19:18:55.770Z,6.93
2022-07-25T19:21:23.804Z,6.53
2022-07-25T19:23:51.881Z,9.43
2022-07-25T19:26:20.033Z,4.28
2022-07-25T19:28:48.000Z,3.17
2022-07-25T19:31:17.563Z,13.63
2022-07-25T19:33:46.641Z,10.07
2022-07-25T19:36:14.673Z,13.25
2022-07-25T19:38:42.633Z,6.07
2022-07-25T19:41:10.593Z,9.63
2022-07-25T19:43:38.519Z,3.28
2022-07-25T19:46:06.631Z,9.25
2022-07-25T19:48:36.143Z,8.23
2022-07-25T19:51:04.119Z,5.38
2022-07-25T19:53:32.625Z,5.10
2022-07-25T19:56:01.310Z,6.68
2022-07-25T19:58:29.282Z,6.72
2022-07-25T20:00:57.342Z,8.27
2022-07-25T20:03:25.297Z,7.37
2022-07-25T20:05:54.620Z,11.45
2022-07-25T20:08:22.568Z,4.30
2022-07-25T20:10:50.471Z,10.48
2022-07-25T20:13:18.466Z,5.07
2022-07-25T20:15:46.430Z,4.87
2022-07-25T20:18:19.300Z,6.78
2022-07-25T20:20:47.859Z,5.15
2022-07-25T20:23:17.201Z,14.52
2022-07-25T20:25:45.291Z,11.43
2022-07-25T20:28:13.394Z,7.50
2022-07-25T20:30:41.615Z,9.95
2022-07-25T20:33:09.934Z,7.90
2022-07-25T20:35:38.102Z,4.35
2022-07-25T20:38:09.800Z,4.18
2022-07-25T20:40:43.867Z,3.25
2022-07-25T20:43:16.279Z,3.55
2022-07-25T20:45:44.336Z,2.75
2022-07-25T20:48:12.424Z,3.45
2022-07-25T20:50:40.393Z,4.68
2022-07-25T20:53:08.542Z,2.13
2022-07-25T20:55:36.507Z,1.35
2022-07-25T20:58:05.840Z,4.77
2022-07-25T21:00:33.958Z,5.50
2022-07-25T21:03:01.978Z,3.20
2022-07-25T21:05:30.062Z,2.95
2022-07-25T21:07:58.939Z,1.37
2022-07-25T21:10:26.950Z,3.47
2022-07-25T21:12:56.667Z,2.03
2022-07-25T21:15:25.965Z,2.10
2022-07-25T21:17:53.989Z,4.60
2022-07-25T21:20:21.987Z,1.50
2022-07-25T21:22:50.715Z,1.55
2022-07-25T21:25:18.691Z,3.55
2022-07-25T21:27:46.725Z,2.83
2022-07-25T21:30:15.254Z,2.22
2022-07-25T21:32:44.958Z,1.65
2022-07-25T21:35:12.993Z,5.28
2022-07-25T21:37:40.969Z,1.65
2022-07-25T21:40:10.449Z,2.25
2022-07-25T21:42:38.422Z,4.97
2022-07-25T21:45:07.577Z,4.27
2022-07-25T21:47:35.549Z,6.63
2022-07-25T21:50:24.948Z,5.38
2022-07-25T21:52:53.294Z,7.70
2022-07-25T21:55:21.369Z,6.03
2022-07-25T21:57:49.552Z,7.27
2022-07-25T22:00:17.857Z,2.67
2022-07-25T22:02:46.382Z,4.03
2022-07-25T22:05:15.982Z,5.20
2022-07-25T22:07:44.030Z,8.97
2022-07-25T22:10:12.432Z,4.07
2022-07-25T22:12:40.587Z,7.27
2022-07-25T22:15:09.064Z,6.73
2022-07-25T22:17:48.284Z,5.97
2022-07-25T22:20:19.298Z,6.40
2022-07-25T22:22:47.737Z,5.80
2022-07-25T22:25:15.967Z,2.37
2022-07-25T22:27:43.861Z,5.40
2022-07-25T22:30:17.999Z,4.70
2022-07-25T22:32:47.174Z,7.30
2022-07-25T22:35:15.260Z,9.17
2022-07-25T22:37:44.598Z,4.97
2022-07-25T22:40:13.453Z,6.87
2022-07-25T22:42:41.391Z,9.27
2022-07-25T22:45:10.049Z,4.70
2022-07-25T22:47:37.974Z,3.80
2022-07-25T22:50:06.970Z,5.13
2022-07-25T22:52:35.466Z,5.20
2022-07-25T22:55:05.148Z,3.10
2022-07-25T22:57:37.248Z,2.23
2022-07-25T23:00:06.772Z,4.40
2022-07-25T23:02:34.755Z,2.30
2022-07-25T23:05:02.911Z,4.00
2022-07-25T23:07:30.924Z,2.10
2022-07-25T23:09:58.917Z,1.43
2022-07-25T23:12:28.264Z,2.30
2022-07-25T23:14:56.377Z,3.33
2022-07-25T23:17:24.781Z,2.37
2022-07-25T23:19:53.672Z,3.07
2022-07-25T23:22:22.224Z,3.33
2022-07-25T23:24:50.223Z,2.13
2022-07-25T23:27:18.189Z,2.93
2022-07-25T23:29:47.529Z,1.20
2022-07-25T23:32:15.535Z,2.23
2022-07-25T23:34:43.607Z,0.90
2022-07-25T23:37:11.494Z,3.67
2022-07-25T23:39:39.436Z,1.00
2022-07-25T23:42:07.517Z,4.37
2022-07-25T23:44:36.470Z,6.43
2022-07-25T23:47:10.210Z,4.23
2022-07-25T23:49:38.805Z,2.13
2022-07-25T23:52:06.834Z,3.53
2022-07-25T23:54:35.071Z,4.80
2022-07-25T23:57:03.071Z,5.10
2022-07-25T23:59:31.044Z,4.83
